createdAt,value
2018-02-26T00:00:16.935Z,49.32
2018-02-26T00:02:43.219Z,49.74
2018-02-26T00:05:10.248Z,49.05
2018-02-26T00:07:37.320Z,49.15
2018-02-26T00:10:03.623Z,49.61
2018-02-26T00:12:29.915Z,50.37
2018-02-26T00:14:56.240Z,50.57
2018-02-26T00:17:22.565Z,50.78
2018-02-26T00:19:48.928Z,50.74
2018-02-26T00:22:15.232Z,50.82
2018-02-26T00:24:41.604Z,51.18
2018-02-26T00:27:07.895Z,51.08
2018-02-26T00:29:34.208Z,51.29
2018-02-26T00:32:00.493Z,51.72
2018-02-26T00:34:26.756Z,52.17
2018-02-26T00:36:53.829Z,52.12
2018-02-26T00:39:20.108Z,52.56
2018-02-26T00:41:46.377Z,52.20
2018-02-26T00:44:12.675Z,51.80
2018-02-26T00:46:39.005Z,51.69
2018-02-26T00:49:05.995Z,51.66
2018-02-26T00:51:32.287Z,51.54
2018-02-26T00:53:59.327Z,52.23
2018-02-26T00:56:26.324Z,52.61
2018-02-26T00:58:52.591Z,51.77
2018-02-26T01:01:18.942Z,52.04
2018-02-26T01:03:45.958Z,51.51
2018-02-26T01:06:12.241Z,51.38
2018-02-26T01:08:38.508Z,51.48
2018-02-26T01:11:04.819Z,51.93
2018-02-26T01:13:31.068Z,51.80
2018-02-26T01:15:57.392Z,52.22
2018-02-26T01:18:23.630Z,52.32
2018-02-26T01:20:49.940Z,52.79
2018-02-26T01:23:16.208Z,53.07
2018-02-26T01:25:42.476Z,53.02
2018-02-26T01:28:08.779Z,53.04
2018-02-26T01:30:35.052Z,53.30
2018-02-26T01:33:01.312Z,53.28
2018-02-26T01:35:27.576Z,53.22
2018-02-26T01:37:53.865Z,53.57
2018-02-26T01:40:20.149Z,53.88
2018-02-26T01:42:47.158Z,53.91
2018-02-26T01:45:13.493Z,53.64
2018-02-26T01:47:39.751Z,53.70
2018-02-26T01:50:06.771Z,53.91
2018-02-26T01:52:33.029Z,54.21
2018-02-26T01:55:00.043Z,54.03
2018-02-26T01:57:26.344Z,53.72
2018-02-26T01:59:52.622Z,54.01
2018-02-26T02:02:18.940Z,53.49
2018-02-26T02:04:45.209Z,52.97
2018-02-26T02:07:12.280Z,53.03
2018-02-26T02:09:38.559Z,53.42
2018-02-26T02:12:04.834Z,53.71
2018-02-26T02:14:31.100Z,53.88
2018-02-26T02:16:57.396Z,53.84
2018-02-26T02:19:23.712Z,53.91
2018-02-26T02:21:50.006Z,53.74
2018-02-26T02:24:16.980Z,53.42
2018-02-26T02:26:44.019Z,53.50
2018-02-26T02:29:11.230Z,53.13
2018-02-26T02:31:37.500Z,53.24
2018-02-26T02:34:04.575Z,53.08
2018-02-26T02:36:30.871Z,53.41
2018-02-26T02:38:57.148Z,53.83
2018-02-26T02:41:23.423Z,54.24
2018-02-26T02:43:49.719Z,53.97
2018-02-26T02:46:16.059Z,53.87
2018-02-26T02:48:42.349Z,54.07
2018-02-26T02:51:08.612Z,54.45
2018-02-26T02:53:34.862Z,54.78
2018-02-26T02:56:01.132Z,55.48
2018-02-26T02:58:27.401Z,55.59
2018-02-26T03:00:53.664Z,55.44
2018-02-26T03:03:27.468Z,55.62
2018-02-26T03:05:56.555Z,55.79
2018-02-26T03:08:26.786Z,56.33
2018-02-26T03:10:54.116Z,56.19
2018-02-26T03:13:20.454Z,55.55
2018-02-26T03:15:46.702Z,55.66
2018-02-26T03:18:12.940Z,55.41
2018-02-26T03:20:39.207Z,55.56
2018-02-26T03:23:05.514Z,55.65
2018-02-26T03:25:32.548Z,55.61
2018-02-26T03:27:59.603Z,55.62
2018-02-26T03:30:26.632Z,55.70
2018-02-26T03:32:52.911Z,55.96
2018-02-26T03:35:19.179Z,56.02
2018-02-26T03:37:45.464Z,55.85
2018-02-26T03:40:11.739Z,55.96
2018-02-26T03:42:38.008Z,56.02
2018-02-26T03:45:05.000Z,55.98
2018-02-26T03:47:31.326Z,56.15
2018-02-26T03:49:57.589Z,56.36
2018-02-26T03:52:23.883Z,56.21
2018-02-26T03:54:50.133Z,56.24
2018-02-26T03:57:16.420Z,55.89
2018-02-26T03:59:42.742Z,56.47
2018-02-26T04:02:09.754Z,56.89
2018-02-26T04:04:36.054Z,56.90
2018-02-26T04:07:02.298Z,57.27
2018-02-26T04:09:28.548Z,57.39
2018-02-26T04:11:54.842Z,57.64
2018-02-26T04:14:28.037Z,57.39
2018-02-26T04:16:54.374Z,57.74
2018-02-26T04:19:21.679Z,57.44
2018-02-26T04:21:47.951Z,57.05
2018-02-26T04:24:14.239Z,56.79
2018-02-26T04:26:41.322Z,56.56
2018-02-26T04:29:07.600Z,57.02
2018-02-26T04:31:33.982Z,57.59
2018-02-26T04:34:00.334Z,57.18
2018-02-26T04:36:26.651Z,57.05
2018-02-26T04:38:53.009Z,56.75
2018-02-26T04:41:19.482Z,56.70
2018-02-26T04:43:46.562Z,56.75
2018-02-26T04:46:12.857Z,56.90
2018-02-26T04:48:39.900Z,56.91
2018-02-26T04:51:06.198Z,56.96
2018-02-26T04:53:32.491Z,57.00
2018-02-26T04:55:58.781Z,56.90
2018-02-26T04:58:25.052Z,57.10
2018-02-26T05:00:51.327Z,56.90
2018-02-26T05:03:17.563Z,56.45
2018-02-26T05:05:43.801Z,56.43
2018-02-26T05:08:10.069Z,56.94
2018-02-26T05:10:36.361Z,56.73
2018-02-26T05:13:03.375Z,56.87
2018-02-26T05:15:29.669Z,56.66
2018-02-26T05:17:55.967Z,56.29
2018-02-26T05:20:22.256Z,56.37
2018-02-26T05:22:48.544Z,56.15
2018-02-26T05:25:15.592Z,56.17
2018-02-26T05:27:42.658Z,56.38
2018-02-26T05:30:08.916Z,55.97
2018-02-26T05:32:35.214Z,56.01
2018-02-26T05:35:01.543Z,55.91
2018-02-26T05:37:27.844Z,56.00
2018-02-26T05:39:54.136Z,56.34
2018-02-26T05:42:20.438Z,57.15
2018-02-26T05:44:46.740Z,57.69
2018-02-26T05:47:13.026Z,57.93
2018-02-26T05:49:39.310Z,58.25
2018-02-26T05:52:06.320Z,58.12
2018-02-26T05:54:32.605Z,58.25
2018-02-26T05:56:58.880Z,58.27
2018-02-26T05:59:25.166Z,57.74
2018-02-26T06:01:51.459Z,57.92
2018-02-26T06:04:17.732Z,58.16
2018-02-26T06:06:44.019Z,58.20
2018-02-26T06:09:10.315Z,58.27
2018-02-26T06:11:36.633Z,58.53
2018-02-26T06:14:02.936Z,59.17
2018-02-26T06:16:29.987Z,59.64
2018-02-26T06:18:56.316Z,59.27
2018-02-26T06:21:23.398Z,59.28
2018-02-26T06:23:49.705Z,59.67
2018-02-26T06:26:16.036Z,59.22
2018-02-26T06:28:42.361Z,58.64
2018-02-26T06:31:08.784Z,58.51
2018-02-26T06:33:35.211Z,57.98
2018-02-26T06:36:01.541Z,58.24
2018-02-26T06:38:28.592Z,58.21
2018-02-26T06:40:55.663Z,57.79
2018-02-26T06:43:21.997Z,57.44
2018-02-26T06:45:48.312Z,57.40
2018-02-26T06:48:21.553Z,56.73
2018-02-26T06:50:47.882Z,56.24
2018-02-26T06:53:14.161Z,55.61
2018-02-26T06:55:40.531Z,55.58
2018-02-26T06:58:06.895Z,54.82
2018-02-26T07:00:33.301Z,55.96
2018-02-26T07:03:00.365Z,55.28
2018-02-26T07:05:26.806Z,54.42
2018-02-26T07:07:53.141Z,54.55
2018-02-26T07:10:19.576Z,54.59
2018-02-26T07:12:46.188Z,53.55
2018-02-26T07:15:12.480Z,53.06
2018-02-26T07:17:39.596Z,52.10
2018-02-26T07:20:05.852Z,52.06
2018-02-26T07:22:32.200Z,52.47
2018-02-26T07:24:59.310Z,51.83
2018-02-26T07:27:25.619Z,51.47
2018-02-26T07:29:51.929Z,50.89
2018-02-26T07:32:18.286Z,50.40
2018-02-26T07:34:44.588Z,50.23
2018-02-26T07:37:10.975Z,50.18
2018-02-26T07:39:37.295Z,49.25
2018-02-26T07:42:03.651Z,48.65
2018-02-26T07:44:30.699Z,49.30
2018-02-26T07:46:57.873Z,48.63
2018-02-26T07:49:24.149Z,48.73
2018-02-26T07:51:50.462Z,49.32
2018-02-26T07:54:16.807Z,49.17
2018-02-26T07:56:43.176Z,48.49
2018-02-26T07:59:10.220Z,48.51
2018-02-26T08:01:37.329Z,47.66
2018-02-26T08:04:03.642Z,48.32
2018-02-26T08:06:30.029Z,47.61
2018-02-26T08:08:57.101Z,47.60
2018-02-26T08:11:23.429Z,47.49
2018-02-26T08:13:49.738Z,46.29
2018-02-26T08:16:16.063Z,45.58
2018-02-26T08:18:43.130Z,45.61
2018-02-26T08:21:10.389Z,45.03
2018-02-26T08:23:36.691Z,44.64
2018-02-26T08:26:03.163Z,44.77
2018-02-26T08:28:29.587Z,44.17
2018-02-26T08:30:56.045Z,44.71
2018-02-26T08:33:22.501Z,44.17
2018-02-26T08:35:48.784Z,44.51
2018-02-26T08:38:15.201Z,43.28
2018-02-26T08:40:41.418Z,42.29
2018-02-26T08:43:07.778Z,42.43
2018-02-26T08:45:34.836Z,42.05
2018-02-26T08:48:01.173Z,42.17
2018-02-26T08:50:27.495Z,40.57
2018-02-26T08:52:53.906Z,40.41
2018-02-26T08:55:20.216Z,41.19
2018-02-26T08:57:46.563Z,41.42
2018-02-26T09:00:13.011Z,40.17
2018-02-26T09:02:39.422Z,39.72
2018-02-26T09:05:05.917Z,38.75
2018-02-26T09:07:32.316Z,38.77
2018-02-26T09:09:59.397Z,39.35
2018-02-26T09:12:25.802Z,38.86
2018-02-26T09:14:52.149Z,38.49
2018-02-26T09:17:18.535Z,38.22
2018-02-26T09:19:44.902Z,38.33
2018-02-26T09:22:11.300Z,39.36
2018-02-26T09:24:37.640Z,38.90
2018-02-26T09:27:04.011Z,39.62
2018-02-26T09:29:30.349Z,39.17
2018-02-26T09:31:56.791Z,39.17
2018-02-26T09:34:23.151Z,39.38
2018-02-26T09:36:49.518Z,38.73
2018-02-26T09:39:17.557Z,38.10
2018-02-26T09:41:43.899Z,38.64
2018-02-26T09:44:11.000Z,39.34
2018-02-26T09:46:37.457Z,39.56
2018-02-26T09:49:03.923Z,39.22
2018-02-26T09:51:30.377Z,38.90
2018-02-26T09:53:57.424Z,38.44
2018-02-26T09:56:24.536Z,37.68
2018-02-26T09:58:50.870Z,37.14
2018-02-26T10:01:17.222Z,36.38
2018-02-26T10:03:44.358Z,36.46
2018-02-26T10:06:10.698Z,36.91
2018-02-26T10:08:37.054Z,36.67
2018-02-26T10:11:04.298Z,35.67
2018-02-26T10:13:31.529Z,35.92
2018-02-26T10:15:58.018Z,35.55
2018-02-26T10:18:24.411Z,35.58
2018-02-26T10:20:51.455Z,33.25
2018-02-26T10:23:17.779Z,32.26
2018-02-26T10:25:44.143Z,32.28
2018-02-26T10:28:10.522Z,31.65
2018-02-26T10:30:36.957Z,31.49
2018-02-26T10:33:03.320Z,31.73
2018-02-26T10:35:30.382Z,31.35
2018-02-26T10:37:56.756Z,30.57
2018-02-26T10:40:23.101Z,30.57
2018-02-26T10:42:49.471Z,31.06
2018-02-26T10:45:17.041Z,31.78
2018-02-26T10:47:44.152Z,32.64
2018-02-26T10:50:10.517Z,32.94
2018-02-26T10:52:37.564Z,32.14
2018-02-26T10:55:04.698Z,32.45
2018-02-26T10:57:31.035Z,32.33
2018-02-26T10:59:58.157Z,32.71
2018-02-26T11:02:24.591Z,32.26
2018-02-26T11:04:51.174Z,31.22
2018-02-26T11:07:18.319Z,30.62
2018-02-26T11:09:45.410Z,29.32
2018-02-26T11:12:11.801Z,28.03
2018-02-26T11:14:38.896Z,27.36
2018-02-26T11:17:05.376Z,27.10
2018-02-26T11:19:32.590Z,26.88
2018-02-26T11:21:58.956Z,26.63
2018-02-26T11:24:26.066Z,28.62
2018-02-26T11:26:52.549Z,28.44
2018-02-26T11:29:19.727Z,28.42
2018-02-26T11:31:46.092Z,29.26
2018-02-26T11:34:12.488Z,29.87
2018-02-26T11:36:38.862Z,29.84
2018-02-26T11:39:05.385Z,30.19
2018-02-26T11:41:31.768Z,29.86
2018-02-26T11:43:58.804Z,28.54
2018-02-26T11:46:25.984Z,29.25
2018-02-26T11:48:52.409Z,28.29
2018-02-26T11:51:18.849Z,27.87
2018-02-26T11:53:45.271Z,27.48
2018-02-26T11:56:12.320Z,23.03
2018-02-26T11:58:38.605Z,18.23
2018-02-26T12:01:04.936Z,15.49
2018-02-26T12:03:31.240Z,15.00
2018-02-26T12:05:57.783Z,14.96
2018-02-26T12:08:24.116Z,16.72
2018-02-26T12:10:50.428Z,19.56
2018-02-26T12:13:16.784Z,21.58
2018-02-26T12:15:43.124Z,23.40
2018-02-26T12:18:09.454Z,24.46
2018-02-26T12:20:35.872Z,25.32
2018-02-26T12:23:02.298Z,25.40
2018-02-26T12:25:28.632Z,25.63
2018-02-26T12:27:54.909Z,25.51
2018-02-26T12:30:28.332Z,25.58
2018-02-26T12:32:55.406Z,25.35
2018-02-26T12:35:21.762Z,21.39
2018-02-26T12:37:48.100Z,16.37
2018-02-26T12:40:14.382Z,14.12
2018-02-26T12:42:40.686Z,12.58
2018-02-26T12:45:07.730Z,14.70
2018-02-26T12:47:34.768Z,17.68
2018-02-26T12:50:01.048Z,19.93
2018-02-26T12:52:27.350Z,22.77
2018-02-26T12:54:54.454Z,24.48
2018-02-26T12:57:20.810Z,26.65
2018-02-26T12:59:47.149Z,26.96
2018-02-26T13:02:13.581Z,27.43
2018-02-26T13:04:39.921Z,26.50
2018-02-26T13:07:06.308Z,26.31
2018-02-26T13:09:33.117Z,24.64
2018-02-26T13:11:59.485Z,24.22
2018-02-26T13:14:25.793Z,25.13
2018-02-26T13:16:52.107Z,26.25
2018-02-26T13:19:18.422Z,22.96
2018-02-26T13:21:45.498Z,17.64
2018-02-26T13:24:11.873Z,14.16
2018-02-26T13:26:38.225Z,15.16
2018-02-26T13:29:04.504Z,17.76
2018-02-26T13:31:30.854Z,20.11
2018-02-26T13:33:57.219Z,22.53
2018-02-26T13:36:24.300Z,22.83
2018-02-26T13:38:50.585Z,24.49
2018-02-26T13:41:17.472Z,26.63
2018-02-26T13:43:44.548Z,28.94
2018-02-26T13:46:11.542Z,28.78
2018-02-26T13:48:37.864Z,28.92
2018-02-26T13:51:04.221Z,28.86
2018-02-26T13:53:30.527Z,29.11
2018-02-26T13:55:57.341Z,29.30
2018-02-26T13:58:23.627Z,29.92
2018-02-26T14:00:50.743Z,31.38
2018-02-26T14:03:17.137Z,31.70
2018-02-26T14:05:43.711Z,31.04
2018-02-26T14:08:10.769Z,31.28
2018-02-26T14:10:37.058Z,31.77
2018-02-26T14:13:03.476Z,32.25
2018-02-26T14:15:29.800Z,32.33
2018-02-26T14:17:56.098Z,31.81
2018-02-26T14:20:22.414Z,31.82
2018-02-26T14:22:48.767Z,31.84
2018-02-26T14:25:15.821Z,31.66
2018-02-26T14:27:42.916Z,31.40
2018-02-26T14:30:09.234Z,32.50
2018-02-26T14:32:35.521Z,31.88
2018-02-26T14:35:01.829Z,30.83
2018-02-26T14:37:28.168Z,30.30
2018-02-26T14:39:55.233Z,30.13
2018-02-26T14:42:22.245Z,30.30
2018-02-26T14:44:48.605Z,30.58
2018-02-26T14:47:15.629Z,31.12
2018-02-26T14:49:41.933Z,30.30
2018-02-26T14:52:08.265Z,30.12
2018-02-26T14:54:34.567Z,29.56
2018-02-26T14:57:01.649Z,29.58
2018-02-26T14:59:27.987Z,29.83
2018-02-26T15:01:54.272Z,29.93
2018-02-26T15:04:21.309Z,30.54
2018-02-26T15:06:47.687Z,31.44
2018-02-26T15:09:14.022Z,31.59
2018-02-26T15:11:40.317Z,31.28
2018-02-26T15:14:07.378Z,31.79
2018-02-26T15:16:33.650Z,31.51
2018-02-26T15:18:59.960Z,31.88
2018-02-26T15:21:26.244Z,31.86
2018-02-26T15:23:53.294Z,32.31
2018-02-26T15:26:20.475Z,31.83
2018-02-26T15:28:46.816Z,32.09
2018-02-26T15:31:13.250Z,32.21
2018-02-26T15:33:39.631Z,32.33
2018-02-26T15:36:05.969Z,32.19
2018-02-26T15:38:33.061Z,32.13
2018-02-26T15:40:59.389Z,32.24
2018-02-26T15:43:25.756Z,32.48
2018-02-26T15:45:52.124Z,33.17
2018-02-26T15:48:19.267Z,33.56
2018-02-26T15:50:46.302Z,33.98
2018-02-26T15:53:12.632Z,34.55
2018-02-26T15:55:38.995Z,34.65
2018-02-26T15:58:05.338Z,34.81
2018-02-26T16:00:31.636Z,34.66
2018-02-26T16:02:57.929Z,34.67
2018-02-26T16:05:24.210Z,35.33
2018-02-26T16:07:50.502Z,34.92
2018-02-26T16:10:16.827Z,34.97
2018-02-26T16:12:43.175Z,34.87
2018-02-26T16:15:09.601Z,35.03
2018-02-26T16:17:35.922Z,35.96
2018-02-26T16:20:02.234Z,36.15
2018-02-26T16:22:28.558Z,36.40
2018-02-26T16:24:55.175Z,36.85
2018-02-26T16:27:21.553Z,37.26
2018-02-26T16:29:47.888Z,37.72
2018-02-26T16:32:14.175Z,37.68
2018-02-26T16:34:40.506Z,37.40
2018-02-26T16:37:06.867Z,37.84
2018-02-26T16:39:33.315Z,37.97
2018-02-26T16:41:59.987Z,38.45
2018-02-26T16:44:26.341Z,38.57
2018-02-26T16:46:52.761Z,39.05
2018-02-26T16:49:19.207Z,38.72
2018-02-26T16:51:45.621Z,39.52
2018-02-26T16:54:12.776Z,39.05
2018-02-26T16:56:39.864Z,38.95
2018-02-26T16:59:06.170Z,39.66
2018-02-26T17:01:32.508Z,39.92
2018-02-26T17:03:58.832Z,39.54
2018-02-26T17:06:25.091Z,39.88
2018-02-26T17:08:51.357Z,40.25
2018-02-26T17:11:17.681Z,40.29
2018-02-26T17:13:44.055Z,40.12
2018-02-26T17:16:10.408Z,40.46
2018-02-26T17:18:36.736Z,40.11
2018-02-26T17:21:03.109Z,41.03
2018-02-26T17:23:29.422Z,41.06
2018-02-26T17:25:55.733Z,41.24
2018-02-26T17:28:22.005Z,41.50
2018-02-26T17:30:48.289Z,41.07
2018-02-26T17:33:14.614Z,40.64
2018-02-26T17:35:40.943Z,40.98
2018-02-26T17:38:07.277Z,41.05
2018-02-26T17:40:33.617Z,40.83
2018-02-26T17:42:59.916Z,41.07
2018-02-26T17:45:27.040Z,41.31
2018-02-26T17:47:53.432Z,41.63
2018-02-26T17:50:20.267Z,42.05
2018-02-26T17:52:46.599Z,41.97
2018-02-26T17:55:13.004Z,42.24
2018-02-26T17:57:40.362Z,42.99
2018-02-26T18:00:07.484Z,42.53
2018-02-26T18:02:34.065Z,42.89
2018-02-26T18:05:00.471Z,43.00
2018-02-26T18:07:26.853Z,42.53
2018-02-26T18:09:54.782Z,42.92
2018-02-26T18:12:21.878Z,43.08
2018-02-26T18:14:48.235Z,43.53
2018-02-26T18:17:14.532Z,43.22
2018-02-26T18:19:40.871Z,42.80
2018-02-26T18:22:07.208Z,43.51
2018-02-26T18:24:34.232Z,43.74
2018-02-26T18:27:00.569Z,43.82
2018-02-26T18:58:57.846Z,44.65
2018-02-26T19:01:25.028Z,44.55
2018-02-26T19:03:51.810Z,44.35
2018-02-26T19:06:18.226Z,44.44
2018-02-26T19:08:45.369Z,44.65
2018-02-26T19:11:13.200Z,44.59
2018-02-26T19:13:40.246Z,44.52
2018-02-26T19:16:07.096Z,44.83
2018-02-26T19:18:33.602Z,44.60
2018-02-26T19:20:59.960Z,43.95
2018-02-26T19:23:26.423Z,44.94
2018-02-26T19:25:54.070Z,44.59
2018-02-26T19:28:21.309Z,44.55
2018-02-26T19:30:48.483Z,44.50
2018-02-26T19:33:15.235Z,44.65
2018-02-26T19:35:41.669Z,44.85
2018-02-26T19:38:08.115Z,44.82
2018-02-26T19:40:34.473Z,44.66
2018-02-26T19:43:00.860Z,45.35
2018-02-26T19:45:28.090Z,45.42
2018-02-26T19:47:54.532Z,45.54
2018-02-26T19:50:21.227Z,45.83
2018-02-26T19:52:47.597Z,45.81
2018-02-26T19:55:14.136Z,46.33
2018-02-26T19:57:40.552Z,45.90
2018-02-26T20:00:07.070Z,45.85
2018-02-26T20:02:33.446Z,45.82
2018-02-26T20:04:59.842Z,45.53
2018-02-26T20:07:26.198Z,45.74
2018-02-26T20:09:52.605Z,45.69
2018-02-26T20:12:19.023Z,45.91
2018-02-26T20:14:45.396Z,45.91
2018-02-26T20:17:11.816Z,46.87
2018-02-26T20:19:38.137Z,46.98
2018-02-26T20:22:04.439Z,47.81
2018-02-26T20:24:30.793Z,47.78
2018-02-26T20:26:57.268Z,47.49
2018-02-26T20:29:23.661Z,47.41
2018-02-26T20:31:50.017Z,47.18
2018-02-26T20:34:16.367Z,47.56
2018-02-26T20:36:42.787Z,47.78
2018-02-26T20:39:18.763Z,47.99
2018-02-26T20:41:45.171Z,48.51
2018-02-26T20:44:11.681Z,48.22
2018-02-26T20:46:38.035Z,48.32
2018-02-26T20:49:04.451Z,47.80
2018-02-26T20:51:30.811Z,47.83
2018-02-26T20:53:57.155Z,47.70
2018-02-26T20:56:23.581Z,47.99
2018-02-26T20:58:50.361Z,47.94
2018-02-26T21:01:16.718Z,48.32
2018-02-26T21:03:43.038Z,48.26
2018-02-26T21:06:09.582Z,48.34
2018-02-26T21:08:35.953Z,48.96
2018-02-26T21:11:02.448Z,48.22
2018-02-26T21:13:28.780Z,47.78
2018-02-26T21:15:55.083Z,48.05
2018-02-26T21:18:21.378Z,48.03
2018-02-26T21:20:47.695Z,48.30
2018-02-26T21:23:14.057Z,48.66
2018-02-26T21:25:40.656Z,48.37
2018-02-26T21:28:06.978Z,48.41
2018-02-26T21:30:33.304Z,49.03
2018-02-26T21:32:59.584Z,48.87
2018-02-26T21:35:26.599Z,48.96
2018-02-26T21:37:52.900Z,49.04
2018-02-26T21:40:19.184Z,48.66
2018-02-26T21:42:45.545Z,49.03
2018-02-26T21:45:11.814Z,48.63
2018-02-26T21:47:38.095Z,48.70
2018-02-26T21:50:05.441Z,48.88
2018-02-26T21:52:31.891Z,49.23
2018-02-26T21:54:58.219Z,49.12
2018-02-26T21:57:25.577Z,49.27
2018-02-26T21:59:52.028Z,48.95
2018-02-26T22:02:18.389Z,49.02
2018-02-26T22:04:44.820Z,48.98
2018-02-26T22:07:12.302Z,49.00
2018-02-26T22:09:39.735Z,49.02
2018-02-26T22:12:06.090Z,48.83
2018-02-26T22:14:32.682Z,49.07
2018-02-26T22:16:59.124Z,49.89
2018-02-26T22:19:26.525Z,49.70
2018-02-26T22:21:52.956Z,49.73
2018-02-26T22:24:19.384Z,50.69
2018-02-26T22:26:45.765Z,49.85
2018-02-26T22:29:12.179Z,49.76
2018-02-26T22:31:39.299Z,50.06
2018-02-26T22:34:05.641Z,49.85
2018-02-26T22:36:32.074Z,50.16
2018-02-26T22:38:58.453Z,49.88
2018-02-26T22:41:24.745Z,49.98
2018-02-26T22:43:51.781Z,50.09
2018-02-26T22:46:18.158Z,49.45
2018-02-26T22:48:44.517Z,49.91
2018-02-26T22:51:10.846Z,50.05
2018-02-26T22:53:37.440Z,50.35
2018-02-26T22:56:03.755Z,50.22
2018-02-26T22:58:30.318Z,51.04
2018-02-26T23:00:56.647Z,50.28
2018-02-26T23:03:23.010Z,50.20
2018-02-26T23:05:49.354Z,50.40
2018-02-26T23:08:15.726Z,50.59
2018-02-26T23:10:42.790Z,50.42
2018-02-26T23:13:09.103Z,50.53
2018-02-26T23:15:36.240Z,50.49
2018-02-26T23:18:02.711Z,51.40
2018-02-26T23:20:29.003Z,50.49
2018-02-26T23:22:55.334Z,50.46
2018-02-26T23:25:21.733Z,50.95
2018-02-26T23:27:48.059Z,50.62
2018-02-26T23:30:14.397Z,50.58
2018-02-26T23:32:40.723Z,51.00
2018-02-26T23:35:07.165Z,50.57
2018-02-26T23:37:33.455Z,50.53
2018-02-26T23:40:00.554Z,50.05
2018-02-26T23:42:26.919Z,50.37
2018-02-26T23:44:53.971Z,50.65
2018-02-26T23:47:20.349Z,50.98
2018-02-26T23:49:46.674Z,50.73
2018-02-26T23:52:13.019Z,50.87
2018-02-26T23:54:44.186Z,51.88
2018-02-26T23:57:10.529Z,52.03
2018-02-26T23:59:37.637Z,52.16
